Time;durP1;ratioP1;P1;durP2;ratioP2;P2;SDS_P1;SDS_P2;PMS_P1;PMS_P2;Temp;Humidity;BMP_temperature;BMP_pressure;BME280_temperature;BME280_humidity;BME280_pressure;Samples;Min_cycle;Max_cycle;Signal;HPM_P1;HPM_P2
2022/01/19 00:00:43;;;;;;;5.63;3.28;;;;;;;;;;4999670;28;20657;-57
2022/01/19 00:03:08;;;;;;;4.75;4.35;;;;;;;;;;5000124;28;20186;-57
2022/01/19 00:05:34;;;;;;;5.72;2.50;;;;;;;;;;4997100;28;20178;-57
2022/01/19 00:07:59;;;;;;;4.47;4.07;;;;;;;;;;4998335;28;21185;-57
2022/01/19 00:10:28;;;;;;;4.15;3.08;;;;;;;;;;4995082;28;20273;-57
2022/01/19 00:12:54;;;;;;;5.35;2.80;;;;;;;;;;5000626;28;20171;-57
2022/01/19 00:15:20;;;;;;;3.70;2.90;;;;;;;;;;5000523;28;20558;-57
2022/01/19 00:17:45;;;;;;;4.22;2.20;;;;;;;;;;5004310;28;20676;-57
2022/01/19 00:20:10;;;;;;;5.15;3.42;;;;;;;;;;5006481;28;20205;-57
2022/01/19 00:22:37;;;;;;;4.28;3.33;;;;;;;;;;5001059;28;20697;-57
2022/01/19 00:25:03;;;;;;;4.32;2.55;;;;;;;;;;4996074;28;20210;-57
2022/01/19 00:27:28;;;;;;;5.53;3.13;;;;;;;;;;4996981;28;20265;-57
2022/01/19 00:29:54;;;;;;;5.32;2.80;;;;;;;;;;5000517;28;20732;-58
2022/01/19 00:32:20;;;;;;;5.30;3.13;;;;;;;;;;5000910;28;20274;-57
2022/01/19 00:34:45;;;;;;;5.60;3.83;;;;;;;;;;4999553;28;20258;-58
2022/01/19 00:37:10;;;;;;;14.70;6.35;;;;;;;;;;5001643;28;20183;-57
2022/01/19 00:39:35;;;;;;;4.75;3.70;;;;;;;;;;5002051;28;20199;-57
2022/01/19 00:42:01;;;;;;;10.18;5.05;;;;;;;;;;5003633;28;20744;-57
2022/01/19 00:44:26;;;;;;;9.13;4.20;;;;;;;;;;4998984;28;20180;-57
2022/01/19 00:46:51;;;;;;;8.48;4.40;;;;;;;;;;4979908;28;20184;-57
2022/01/19 00:49:16;;;;;;;7.10;3.33;;;;;;;;;;4981759;28;20195;-57
2022/01/19 00:51:42;;;;;;;6.50;3.80;;;;;;;;;;5001340;28;20716;-57
2022/01/19 00:54:07;;;;;;;12.95;7.43;;;;;;;;;;4997681;28;20257;-57
2022/01/19 00:56:35;;;;;;;5.07;2.90;;;;;;;;;;4998297;28;20190;-57
2022/01/19 00:59:01;;;;;;;4.28;2.97;;;;;;;;;;5009881;28;20233;-56
2022/01/19 01:01:26;;;;;;;2.60;2.25;;;;;;;;;;5003550;28;20643;-57
2022/01/19 01:03:51;;;;;;;3.75;2.70;;;;;;;;;;4994609;28;20176;-57
2022/01/19 01:06:17;;;;;;;7.05;3.97;;;;;;;;;;4984686;28;20198;-56
2022/01/19 01:08:43;;;;;;;5.00;3.10;;;;;;;;;;4980733;28;20579;-57
2022/01/19 01:11:08;;;;;;;4.63;2.60;;;;;;;;;;5001713;28;20248;-57
2022/01/19 01:16:30;;;;;;;4.18;2.53;;;;;;;;;;5003442;28;20566;-56
2022/01/19 01:18:55;;;;;;;5.40;2.88;;;;;;;;;;4999846;28;20195;-57
2022/01/19 01:21:21;;;;;;;4.57;3.30;;;;;;;;;;5008415;28;20827;-57
2022/01/19 01:23:46;;;;;;;3.58;2.92;;;;;;;;;;5000183;28;20218;-57
2022/01/19 01:26:11;;;;;;;7.93;5.93;;;;;;;;;;5000401;28;20181;-57
2022/01/19 01:28:37;;;;;;;5.93;2.80;;;;;;;;;;4998594;28;20183;-56
2022/01/19 01:31:03;;;;;;;7.13;3.17;;;;;;;;;;5000251;28;21051;-56
2022/01/19 01:33:28;;;;;;;5.93;3.95;;;;;;;;;;5002165;28;20183;-56
2022/01/19 01:35:54;;;;;;;3.70;2.97;;;;;;;;;;4993975;28;20183;-57
2022/01/19 01:38:19;;;;;;;6.25;2.88;;;;;;;;;;5008726;28;20233;-56
2022/01/19 01:40:44;;;;;;;5.78;4.35;;;;;;;;;;4999211;28;20278;-56
2022/01/19 01:43:09;;;;;;;2.45;2.25;;;;;;;;;;5006612;28;20641;-57
2022/01/19 01:45:38;;;;;;;8.40;2.28;;;;;;;;;;4994865;28;20242;-57
2022/01/19 01:48:14;;;;;;;4.72;3.35;;;;;;;;;;4998996;28;20183;-57
2022/01/19 01:53:26;;;;;;;3.67;2.97;;;;;;;;;;5001599;28;20463;-57
2022/01/19 01:55:54;;;;;;;4.90;3.25;;;;;;;;;;4995941;28;20669;-57
2022/01/19 01:58:19;;;;;;;3.25;2.78;;;;;;;;;;4994841;28;20184;-57
2022/01/19 02:00:45;;;;;;;3.60;2.40;;;;;;;;;;4997798;28;20574;-57
2022/01/19 02:03:12;;;;;;;3.83;2.50;;;;;;;;;;4993652;28;20211;-57
2022/01/19 02:05:42;;;;;;;5.47;3.17;;;;;;;;;;4997183;28;20266;-57
2022/01/19 02:08:18;;;;;;;4.18;2.70;;;;;;;;;;4993634;28;20168;-57
2022/01/19 02:21:58;;;;;;;6.10;2.30;;;;;;;;;;4990009;28;20183;-57
2022/01/19 02:24:28;;;;;;;3.55;2.30;;;;;;;;;;4997463;28;20167;-57
2022/01/19 02:40:15;;;;;;;3.30;2.25;;;;;;;;;;4995576;28;20346;-57
2022/01/19 02:43:08;;;;;;;8.27;2.42;;;;;;;;;;4999045;28;20695;-57
2022/01/19 02:50:57;;;;;;;2.83;2.10;;;;;;;;;;4988210;28;20261;-57
2022/01/19 02:53:22;;;;;;;3.13;2.30;;;;;;;;;;4978187;28;20203;-57
2022/01/19 02:55:47;;;;;;;3.63;2.30;;;;;;;;;;4980018;28;20183;-56
2022/01/19 02:58:14;;;;;;;2.75;2.35;;;;;;;;;;4991613;28;20258;-57
2022/01/19 03:08:42;;;;;;;3.97;2.15;;;;;;;;;;4995440;28;20194;-57
2022/01/19 03:09:03;;;;;;;4.47;2.22;;;;;;;;;;4997745;28;20215;-58
2022/01/19 03:11:28;;;;;;;4.18;1.90;;;;;;;;;;5003032;28;20221;-58
2022/01/19 03:13:54;;;;;;;2.10;2.00;;;;;;;;;;4997094;28;20626;-57
2022/01/19 03:16:19;;;;;;;5.03;2.13;;;;;;;;;;4998705;28;20183;-58
2022/01/19 03:18:45;;;;;;;2.15;2.00;;;;;;;;;;5002222;28;20203;-57
2022/01/19 03:21:10;;;;;;;4.85;2.70;;;;;;;;;;4996600;28;20191;-56
2022/01/19 03:23:36;;;;;;;2.25;1.85;;;;;;;;;;4996671;28;20934;-57
2022/01/19 03:26:06;;;;;;;4.97;2.40;;;;;;;;;;5004106;28;20329;-56
2022/01/19 03:28:31;;;;;;;3.40;1.98;;;;;;;;;;4998447;28;20168;-57
2022/01/19 03:30:56;;;;;;;3.00;2.33;;;;;;;;;;5002074;28;20668;-57
2022/01/19 03:33:21;;;;;;;3.17;1.98;;;;;;;;;;4986920;28;20799;-57
2022/01/19 03:35:47;;;;;;;2.20;2.00;;;;;;;;;;4977846;28;20700;-57
2022/01/19 03:38:12;;;;;;;2.40;2.13;;;;;;;;;;4980440;28;20207;-57
2022/01/19 03:40:38;;;;;;;4.15;3.10;;;;;;;;;;4995270;28;20687;-57
2022/01/19 03:43:05;;;;;;;2.10;1.88;;;;;;;;;;4991077;28;20188;-57
2022/01/19 03:45:32;;;;;;;2.55;1.95;;;;;;;;;;4995910;28;20191;-58
2022/01/19 03:50:42;;;;;;;4.00;2.47;;;;;;;;;;5002863;28;20225;-58
2022/01/19 03:53:07;;;;;;;3.78;2.33;;;;;;;;;;4997637;28;20597;-56
2022/01/19 03:55:32;;;;;;;3.33;2.45;;;;;;;;;;4976502;28;20202;-57
2022/01/19 03:57:57;;;;;;;4.00;2.50;;;;;;;;;;4978268;28;20182;-57
2022/01/19 04:00:23;;;;;;;4.70;2.28;;;;;;;;;;4991931;28;20198;-57
2022/01/19 04:02:49;;;;;;;2.28;2.05;;;;;;;;;;5000463;28;20191;-57
2022/01/19 04:05:23;;;;;;;3.65;2.38;;;;;;;;;;4995656;28;20640;-57
2022/01/19 04:07:48;;;;;;;3.13;2.83;;;;;;;;;;5005933;28;20182;-57
2022/01/19 04:10:14;;;;;;;2.38;2.17;;;;;;;;;;5001964;28;20194;-57
2022/01/19 04:12:56;;;;;;;3.53;2.10;;;;;;;;;;5008721;28;20660;-57
2022/01/19 04:15:21;;;;;;;3.88;2.28;;;;;;;;;;4982616;28;20187;-57
2022/01/19 04:17:52;;;;;;;3.80;2.10;;;;;;;;;;4977382;28;20575;-56
2022/01/19 04:20:18;;;;;;;3.20;2.25;;;;;;;;;;4999505;28;20209;-57
2022/01/19 04:22:43;;;;;;;4.88;2.03;;;;;;;;;;4997873;28;20179;-57
2022/01/19 04:25:09;;;;;;;1.95;1.83;;;;;;;;;;4999188;28;20186;-57
2022/01/19 04:27:34;;;;;;;3.67;2.35;;;;;;;;;;4995744;28;20186;-58
2022/01/19 04:30:09;;;;;;;2.55;2.00;;;;;;;;;;4995909;28;20195;-57
2022/01/19 04:35:15;;;;;;;2.67;2.13;;;;;;;;;;5005443;28;20187;-57
2022/01/19 04:38:24;;;;;;;2.33;1.77;;;;;;;;;;4999275;28;20738;-57
2022/01/19 04:46:44;;;;;;;4.35;2.60;;;;;;;;;;5006374;28;20237;-57
2022/01/19 04:54:05;;;;;;;3.05;2.15;;;;;;;;;;5002128;28;20191;-57
2022/01/19 05:03:18;;;;;;;2.33;2.17;;;;;;;;;;5009621;28;20574;-57
2022/01/19 05:05:54;;;;;;;1.90;1.80;;;;;;;;;;5006073;28;20280;-57
2022/01/19 05:09:08;;;;;;;2.95;2.33;;;;;;;;;;4998100;28;20602;-57
2022/01/19 05:13:52;;;;;;;3.55;2.28;;;;;;;;;;5003570;28;20205;-57
2022/01/19 05:16:21;;;;;;;2.78;2.58;;;;;;;;;;4997641;28;20259;-57
2022/01/19 05:18:47;;;;;;;4.70;2.05;;;;;;;;;;5002614;28;20963;-57
2022/01/19 05:21:12;;;;;;;2.10;1.90;;;;;;;;;;5000033;28;20187;-57
2022/01/19 05:23:38;;;;;;;3.63;2.13;;;;;;;;;;5003041;28;20583;-56
2022/01/19 05:26:03;;;;;;;3.13;2.08;;;;;;;;;;4994430;28;20335;-57
2022/01/19 05:28:28;;;;;;;5.47;3.60;;;;;;;;;;5028034;28;20184;-56
2022/01/19 05:30:54;;;;;;;4.35;2.92;;;;;;;;;;4995391;28;20234;-57
2022/01/19 05:33:19;;;;;;;3.25;1.90;;;;;;;;;;4996809;28;20179;-57
2022/01/19 05:35:44;;;;;;;3.08;2.60;;;;;;;;;;5003924;28;20186;-57
2022/01/19 05:38:10;;;;;;;4.68;3.58;;;;;;;;;;5009223;28;20182;-58
2022/01/19 05:40:35;;;;;;;7.72;4.50;;;;;;;;;;4979202;28;20263;-57
2022/01/19 05:43:01;;;;;;;2.60;2.40;;;;;;;;;;4980799;28;20191;-57
2022/01/19 05:45:26;;;;;;;8.07;4.47;;;;;;;;;;4987690;28;20652;-57
2022/01/19 05:47:52;;;;;;;10.82;6.18;;;;;;;;;;4991988;28;20214;-58
2022/01/19 05:50:17;;;;;;;6.97;4.65;;;;;;;;;;5003155;28;20632;-58
2022/01/19 05:52:42;;;;;;;4.43;3.28;;;;;;;;;;5000912;28;20225;-57
2022/01/19 05:55:08;;;;;;;6.78;3.55;;;;;;;;;;4998527;28;20183;-57
2022/01/19 05:57:34;;;;;;;3.17;2.58;;;;;;;;;;5003856;28;20229;-57
2022/01/19 06:00:00;;;;;;;4.35;3.95;;;;;;;;;;5008018;28;20216;-57
2022/01/19 06:02:25;;;;;;;4.07;2.67;;;;;;;;;;4978909;28;20180;-57
2022/01/19 06:04:50;;;;;;;4.55;2.90;;;;;;;;;;4980743;28;20255;-57
2022/01/19 06:07:16;;;;;;;3.50;2.10;;;;;;;;;;4993641;28;20188;-57
2022/01/19 06:12:10;;;;;;;2.88;2.38;;;;;;;;;;5000652;28;20188;-58
2022/01/19 06:14:36;;;;;;;3.03;2.00;;;;;;;;;;4996596;28;20184;-57
2022/01/19 06:17:02;;;;;;;4.18;2.35;;;;;;;;;;4997983;28;20188;-58
2022/01/19 06:19:27;;;;;;;2.97;2.20;;;;;;;;;;5002570;28;20253;-57
2022/01/19 06:21:53;;;;;;;8.82;6.97;;;;;;;;;;4999030;28;20225;-58
2022/01/19 06:24:18;;;;;;;4.63;2.33;;;;;;;;;;4998582;28;20852;-57
2022/01/19 06:26:43;;;;;;;4.35;3.95;;;;;;;;;;5002133;28;20682;-57
2022/01/19 06:29:09;;;;;;;2.80;2.60;;;;;;;;;;4999904;28;20206;-57
2022/01/19 06:31:34;;;;;;;3.92;2.67;;;;;;;;;;4999927;28;20179;-57
2022/01/19 06:33:59;;;;;;;6.72;4.47;;;;;;;;;;5001647;28;20656;-57
2022/01/19 06:36:24;;;;;;;4.00;2.70;;;;;;;;;;4998469;28;20187;-57
2022/01/19 06:38:50;;;;;;;4.22;2.20;;;;;;;;;;5001897;28;20361;-57
2022/01/19 06:41:15;;;;;;;3.85;2.53;;;;;;;;;;5001358;28;20187;-58
2022/01/19 06:43:40;;;;;;;5.38;2.42;;;;;;;;;;4996963;28;20237;-57
2022/01/19 06:46:06;;;;;;;2.83;1.90;;;;;;;;;;4998772;28;20574;-57
2022/01/19 06:48:31;;;;;;;5.47;3.25;;;;;;;;;;5002637;28;20207;-57
2022/01/19 06:50:56;;;;;;;3.10;2.72;;;;;;;;;;4995030;28;20227;-57
2022/01/19 06:53:22;;;;;;;1.98;1.80;;;;;;;;;;4997575;28;20207;-57
2022/01/19 06:55:47;;;;;;;4.28;2.20;;;;;;;;;;5002276;28;20191;-57
2022/01/19 06:58:12;;;;;;;4.82;2.40;;;;;;;;;;4997648;28;20206;-57
2022/01/19 07:00:38;;;;;;;4.53;2.58;;;;;;;;;;4998572;28;20590;-57
2022/01/19 07:03:03;;;;;;;4.45;2.42;;;;;;;;;;4996810;28;20273;-57
2022/01/19 07:05:28;;;;;;;4.60;2.30;;;;;;;;;;4996730;28;20176;-57
2022/01/19 07:07:56;;;;;;;2.42;2.22;;;;;;;;;;4998454;28;20700;-57
2022/01/19 07:10:22;;;;;;;2.63;2.20;;;;;;;;;;4999301;28;20208;-57
2022/01/19 07:12:47;;;;;;;2.47;2.25;;;;;;;;;;4999605;28;20625;-57
2022/01/19 07:15:12;;;;;;;5.32;2.67;;;;;;;;;;5005411;28;20181;-57
2022/01/19 07:17:38;;;;;;;2.42;2.10;;;;;;;;;;5007480;28;20186;-57
2022/01/19 07:20:03;;;;;;;3.35;2.13;;;;;;;;;;4997759;28;20274;-57
2022/01/19 07:22:29;;;;;;;4.38;3.22;;;;;;;;;;5002142;28;20205;-57
2022/01/19 07:24:54;;;;;;;3.35;2.00;;;;;;;;;;5000837;28;20186;-57
2022/01/19 07:27:19;;;;;;;4.05;2.35;;;;;;;;;;4997307;28;20951;-57
2022/01/19 07:29:45;;;;;;;2.85;2.55;;;;;;;;;;5000182;28;20187;-57
2022/01/19 07:32:12;;;;;;;3.83;2.88;;;;;;;;;;4993608;28;20172;-57
2022/01/19 07:34:37;;;;;;;5.45;2.42;;;;;;;;;;4998401;28;20728;-57
2022/01/19 07:37:03;;;;;;;3.83;2.55;;;;;;;;;;4994385;28;20263;-57
2022/01/19 07:39:28;;;;;;;3.25;3.05;;;;;;;;;;4993573;28;20195;-57
2022/01/19 07:41:55;;;;;;;3.90;2.97;;;;;;;;;;4999792;28;20980;-57
2022/01/19 07:44:21;;;;;;;4.60;2.47;;;;;;;;;;5001126;28;20661;-57
2022/01/19 07:46:46;;;;;;;4.32;2.63;;;;;;;;;;4978629;28;20182;-57
2022/01/19 07:49:12;;;;;;;2.50;2.30;;;;;;;;;;4978175;28;20180;-57
2022/01/19 07:51:37;;;;;;;4.47;2.10;;;;;;;;;;4988003;28;20190;-57
2022/01/19 07:54:02;;;;;;;4.05;2.30;;;;;;;;;;5000527;28;21170;-58
2022/01/19 07:56:28;;;;;;;4.07;2.60;;;;;;;;;;4998904;28;20652;-58
2022/01/19 07:58:53;;;;;;;2.50;2.30;;;;;;;;;;5003038;28;20283;-57
2022/01/19 08:01:19;;;;;;;5.22;2.78;;;;;;;;;;4996214;28;20645;-58
2022/01/19 08:03:44;;;;;;;4.60;2.53;;;;;;;;;;4993162;28;20257;-58
2022/01/19 08:06:09;;;;;;;4.65;2.42;;;;;;;;;;4993619;28;20168;-57
2022/01/19 08:08:35;;;;;;;3.58;2.55;;;;;;;;;;4976511;28;20176;-57
2022/01/19 08:11:01;;;;;;;2.10;1.95;;;;;;;;;;4978430;28;20659;-57
2022/01/19 08:13:26;;;;;;;3.08;2.70;;;;;;;;;;4990727;28;20260;-56
2022/01/19 08:15:51;;;;;;;4.55;2.42;;;;;;;;;;4997070;28;20254;-57
2022/01/19 08:18:16;;;;;;;2.72;2.38;;;;;;;;;;5002319;28;20187;-56
2022/01/19 08:20:43;;;;;;;6.03;2.80;;;;;;;;;;4989115;28;20204;-57
2022/01/19 08:23:09;;;;;;;2.22;2.00;;;;;;;;;;4996717;28;20207;-58
2022/01/19 08:25:34;;;;;;;2.80;2.60;;;;;;;;;;4998425;28;20218;-58
2022/01/19 08:27:59;;;;;;;3.33;2.55;;;;;;;;;;4994811;28;20179;-57
2022/01/19 08:30:25;;;;;;;4.28;2.83;;;;;;;;;;4996640;28;20194;-58
2022/01/19 08:32:50;;;;;;;7.00;2.40;;;;;;;;;;4999470;28;20266;-57
2022/01/19 08:35:16;;;;;;;5.20;2.15;;;;;;;;;;5001487;28;20588;-58
2022/01/19 08:37:41;;;;;;;2.72;2.08;;;;;;;;;;4997737;28;20183;-57
2022/01/19 08:40:07;;;;;;;3.72;1.92;;;;;;;;;;5001285;28;20202;-58
2022/01/19 08:42:33;;;;;;;2.88;2.15;;;;;;;;;;4994359;28;20175;-57
2022/01/19 08:45:04;;;;;;;4.90;3.42;;;;;;;;;;4998342;28;20660;-57
2022/01/19 08:47:30;;;;;;;2.83;2.42;;;;;;;;;;4997326;28;20196;-57
2022/01/19 08:49:55;;;;;;;2.92;2.60;;;;;;;;;;4995639;28;21032;-56
2022/01/19 08:52:21;;;;;;;4.72;2.83;;;;;;;;;;4977641;28;20254;-57
2022/01/19 08:54:47;;;;;;;7.18;4.95;;;;;;;;;;4988006;28;20203;-56
2022/01/19 08:57:12;;;;;;;5.60;3.40;;;;;;;;;;4993329;28;20187;-57
2022/01/19 08:59:38;;;;;;;3.05;2.75;;;;;;;;;;5003788;28;20205;-56
2022/01/19 09:02:03;;;;;;;3.75;2.50;;;;;;;;;;4994083;28;20185;-57
2022/01/19 09:04:29;;;;;;;3.70;2.15;;;;;;;;;;4996117;28;20654;-57
2022/01/19 09:06:55;;;;;;;3.35;2.22;;;;;;;;;;4994311;28;20612;-57
2022/01/19 09:09:21;;;;;;;3.08;2.47;;;;;;;;;;4997311;28;20696;-57
2022/01/19 09:11:48;;;;;;;3.55;2.65;;;;;;;;;;4999560;28;20178;-57
2022/01/19 09:14:13;;;;;;;18.70;10.45;;;;;;;;;;5000853;28;20175;-57
2022/01/19 09:16:39;;;;;;;6.10;2.30;;;;;;;;;;5001122;28;20191;-57
2022/01/19 09:19:06;;;;;;;6.80;2.50;;;;;;;;;;5004019;28;20192;-56
2022/01/19 09:21:32;;;;;;;4.95;3.25;;;;;;;;;;4993354;28;20180;-57
2022/01/19 09:23:57;;;;;;;5.65;3.38;;;;;;;;;;4999490;28;20175;-57
2022/01/19 09:26:22;;;;;;;4.60;2.65;;;;;;;;;;4995007;28;20175;-57
2022/01/19 09:28:48;;;;;;;3.22;2.40;;;;;;;;;;5002241;28;20813;-57
2022/01/19 09:31:16;;;;;;;5.70;2.53;;;;;;;;;;4986785;28;20168;-57
2022/01/19 09:33:43;;;;;;;2.53;2.33;;;;;;;;;;4999857;28;20609;-58
2022/01/19 09:36:29;;;;;;;6.13;3.92;;;;;;;;;;5002356;28;20179;-58
2022/01/19 09:38:54;;;;;;;3.83;2.78;;;;;;;;;;4999428;28;20215;-57
2022/01/19 09:41:19;;;;;;;4.47;2.38;;;;;;;;;;5005596;28;20176;-57
2022/01/19 09:43:44;;;;;;;4.05;3.25;;;;;;;;;;4993304;28;20582;-57
2022/01/19 09:46:10;;;;;;;3.03;2.75;;;;;;;;;;5000170;28;20172;-56
2022/01/19 09:48:35;;;;;;;3.67;2.75;;;;;;;;;;4997244;28;20178;-57
2022/01/19 09:51:00;;;;;;;5.93;3.40;;;;;;;;;;4996442;28;20234;-56
2022/01/19 09:53:26;;;;;;;3.50;3.20;;;;;;;;;;4978808;28;20917;-57
2022/01/19 09:55:51;;;;;;;4.93;3.17;;;;;;;;;;4980685;28;20733;-57
2022/01/19 09:58:18;;;;;;;3.58;2.85;;;;;;;;;;4993231;28;20229;-58
2022/01/19 10:00:44;;;;;;;4.38;2.70;;;;;;;;;;4994366;28;20209;-58
2022/01/19 10:03:13;;;;;;;3.95;2.30;;;;;;;;;;4999842;28;20182;-58
2022/01/19 10:05:57;;;;;;;5.57;3.85;;;;;;;;;;4997956;28;20900;-57
2022/01/19 10:08:42;;;;;;;5.65;2.50;;;;;;;;;;5004807;28;20246;-56
2022/01/19 10:11:15;;;;;;;5.72;2.90;;;;;;;;;;4991431;28;20221;-57
2022/01/19 10:17:00;;;;;;;5.45;2.65;;;;;;;;;;4999619;28;20194;-56
2022/01/19 10:19:49;;;;;;;4.72;2.40;;;;;;;;;;5001819;28;20289;-57
2022/01/19 10:22:19;;;;;;;3.92;2.85;;;;;;;;;;4994564;28;20199;-57
2022/01/19 10:24:52;;;;;;;4.53;2.65;;;;;;;;;;5002447;28;20191;-56
2022/01/19 10:27:20;;;;;;;2.92;2.38;;;;;;;;;;4997444;28;20180;-56
2022/01/19 10:29:46;;;;;;;4.03;3.42;;;;;;;;;;5003092;28;20187;-56
2022/01/19 10:32:12;;;;;;;7.45;3.40;;;;;;;;;;5000176;28;20180;-57
2022/01/19 10:34:37;;;;;;;3.58;3.28;;;;;;;;;;4980714;28;20195;-57
2022/01/19 10:37:05;;;;;;;4.07;3.60;;;;;;;;;;4978699;28;20864;-57
2022/01/19 10:39:43;;;;;;;9.05;4.93;;;;;;;;;;5000994;28;20202;-57
2022/01/19 10:42:10;;;;;;;7.88;5.90;;;;;;;;;;5003152;28;20175;-58
2022/01/19 10:44:37;;;;;;;11.13;5.78;;;;;;;;;;5002046;28;20204;-57
2022/01/19 10:47:03;;;;;;;4.95;3.72;;;;;;;;;;5002305;28;20217;-57
2022/01/19 10:49:44;;;;;;;5.60;4.68;;;;;;;;;;5000163;28;20215;-56
2022/01/19 10:52:10;;;;;;;7.63;5.55;;;;;;;;;;4988836;28;20266;-56
2022/01/19 10:54:37;;;;;;;15.27;8.90;;;;;;;;;;4998130;28;20298;-57
2022/01/19 10:57:13;;;;;;;17.27;9.57;;;;;;;;;;4997009;28;20179;-57
2022/01/19 10:59:39;;;;;;;12.23;8.68;;;;;;;;;;4999190;28;20214;-57
2022/01/19 11:02:04;;;;;;;8.23;5.75;;;;;;;;;;5003481;28;20264;-57
2022/01/19 11:04:31;;;;;;;8.05;4.07;;;;;;;;;;5005214;28;20179;-57
2022/01/19 11:06:56;;;;;;;4.88;3.55;;;;;;;;;;4996237;28;20270;-57
2022/01/19 11:09:24;;;;;;;4.50;3.50;;;;;;;;;;4995843;28;20664;-58
2022/01/19 11:11:53;;;;;;;7.03;4.80;;;;;;;;;;5003328;28;20176;-58
2022/01/19 11:14:18;;;;;;;6.55;4.82;;;;;;;;;;4994248;28;20202;-57
2022/01/19 11:16:44;;;;;;;9.32;6.75;;;;;;;;;;4979958;28;20610;-57
2022/01/19 11:19:10;;;;;;;6.35;5.13;;;;;;;;;;4982596;28;20328;-57
2022/01/19 11:21:56;;;;;;;9.07;5.13;;;;;;;;;;5000323;28;20179;-58
2022/01/19 11:24:31;;;;;;;6.78;3.45;;;;;;;;;;4999187;28;20176;-57
2022/01/19 11:26:57;;;;;;;10.90;4.90;;;;;;;;;;5007061;28;20171;-58
2022/01/19 11:29:23;;;;;;;6.57;4.70;;;;;;;;;;5000146;28;20187;-58
2022/01/19 11:31:50;;;;;;;5.97;4.72;;;;;;;;;;5001053;28;20183;-58
2022/01/19 11:34:15;;;;;;;9.48;6.20;;;;;;;;;;4999865;28;20183;-58
2022/01/19 11:36:42;;;;;;;5.28;4.72;;;;;;;;;;5004361;28;20195;-58
2022/01/19 11:39:20;;;;;;;8.88;3.90;;;;;;;;;;4997008;28;20195;-58
2022/01/19 11:41:50;;;;;;;9.18;4.47;;;;;;;;;;4979283;28;20246;-58
2022/01/19 11:44:16;;;;;;;5.53;3.75;;;;;;;;;;4991531;28;20191;-58
2022/01/19 11:46:43;;;;;;;8.43;6.07;;;;;;;;;;4990442;28;20190;-58
2022/01/19 11:49:10;;;;;;;11.15;5.80;;;;;;;;;;5004736;28;20660;-58
2022/01/19 11:51:46;;;;;;;6.85;5.25;;;;;;;;;;5000869;28;20235;-58
2022/01/19 11:54:11;;;;;;;10.27;5.93;;;;;;;;;;4991215;28;20203;-58
2022/01/19 11:56:55;;;;;;;11.43;6.93;;;;;;;;;;4996988;28;20247;-57
2022/01/19 11:59:21;;;;;;;10.80;6.35;;;;;;;;;;4976962;28;20195;-58
2022/01/19 12:01:47;;;;;;;6.97;4.65;;;;;;;;;;4978111;28;20618;-57
2022/01/19 12:04:20;;;;;;;5.85;3.83;;;;;;;;;;4996427;28;20191;-58
2022/01/19 12:06:46;;;;;;;7.28;4.20;;;;;;;;;;4994317;28;20179;-59
2022/01/19 12:09:13;;;;;;;4.43;3.95;;;;;;;;;;4992597;28;20179;-57
2022/01/19 12:11:44;;;;;;;6.82;5.03;;;;;;;;;;4992580;28;20184;-57
2022/01/19 12:14:36;;;;;;;10.95;6.47;;;;;;;;;;5007114;28;20185;-56
2022/01/19 12:19:28;;;;;;;8.85;6.00;;;;;;;;;;5000553;28;20207;-59
2022/01/19 12:21:55;;;;;;;10.20;5.88;;;;;;;;;;4996886;28;20207;-60
2022/01/19 12:24:56;;;;;;;48.08;22.35;;;;;;;;;;4999406;28;20183;-58
2022/01/19 12:27:27;;;;;;;14.50;7.85;;;;;;;;;;4978006;28;20171;-57
2022/01/19 12:30:01;;;;;;;18.65;10.38;;;;;;;;;;5001590;28;20231;-56
2022/01/19 12:32:26;;;;;;;11.85;8.07;;;;;;;;;;4992815;28;20282;-57
2022/01/19 12:34:55;;;;;;;17.13;9.60;;;;;;;;;;4997086;28;20242;-57
2022/01/19 12:37:27;;;;;;;10.48;6.53;;;;;;;;;;5000031;28;20175;-57
2022/01/19 12:39:52;;;;;;;7.00;4.70;;;;;;;;;;4997058;28;20776;-57
2022/01/19 12:42:29;;;;;;;11.13;5.50;;;;;;;;;;4998635;28;20171;-58
2022/01/19 12:44:56;;;;;;;13.02;8.77;;;;;;;;;;5001982;28;21588;-58
2022/01/19 12:47:24;;;;;;;24.05;13.45;;;;;;;;;;5008022;28;20184;-58
2022/01/19 12:49:50;;;;;;;18.52;11.13;;;;;;;;;;5007329;28;20235;-58
2022/01/19 12:52:16;;;;;;;17.00;7.28;;;;;;;;;;5003963;28;20186;-58
2022/01/19 12:54:41;;;;;;;16.85;9.23;;;;;;;;;;5004005;28;20203;-58
2022/01/19 12:57:09;;;;;;;12.13;7.47;;;;;;;;;;5010208;28;20616;-57
2022/01/19 12:59:35;;;;;;;42.80;23.00;;;;;;;;;;4992881;28;20245;-58
2022/01/19 13:02:00;;;;;;;13.57;7.97;;;;;;;;;;4999859;28;20218;-58
2022/01/19 13:04:29;;;;;;;25.27;15.48;;;;;;;;;;5000126;28;20179;-57
2022/01/19 13:06:56;;;;;;;10.93;7.10;;;;;;;;;;5004764;28;20671;-56
2022/01/19 13:09:40;;;;;;;27.23;15.40;;;;;;;;;;5010303;28;20187;-57
2022/01/19 13:12:10;;;;;;;6.82;4.72;;;;;;;;;;4991154;28;20171;-57
2022/01/19 13:14:35;;;;;;;9.40;7.90;;;;;;;;;;4995029;28;20191;-58
2022/01/19 13:17:00;;;;;;;15.77;8.77;;;;;;;;;;5002112;28;20636;-57
2022/01/19 13:19:27;;;;;;;9.00;6.53;;;;;;;;;;5000892;28;20211;-57
2022/01/19 13:21:58;;;;;;;12.00;9.38;;;;;;;;;;4996169;28;20186;-58
2022/01/19 13:24:27;;;;;;;7.10;4.53;;;;;;;;;;4999657;28;20182;-57
2022/01/19 13:26:58;;;;;;;6.78;4.88;;;;;;;;;;5001024;28;20237;-58
2022/01/19 13:29:25;;;;;;;8.90;6.68;;;;;;;;;;5004385;28;20179;-58
2022/01/19 13:31:55;;;;;;;12.10;7.10;;;;;;;;;;4998088;28;20207;-58
2022/01/19 13:34:20;;;;;;;6.07;4.07;;;;;;;;;;5003637;28;20682;-58
2022/01/19 13:36:51;;;;;;;6.82;3.90;;;;;;;;;;4998658;28;20183;-58
2022/01/19 13:39:19;;;;;;;4.45;3.15;;;;;;;;;;4992832;28;20234;-58
2022/01/19 13:41:44;;;;;;;5.82;3.60;;;;;;;;;;5005433;28;20207;-57
2022/01/19 13:44:13;;;;;;;4.57;2.90;;;;;;;;;;4981564;28;20806;-58
2022/01/19 13:46:40;;;;;;;6.60;3.42;;;;;;;;;;4999433;28;20237;-57
2022/01/19 13:49:05;;;;;;;4.63;3.05;;;;;;;;;;5004142;28;20189;-59
2022/01/19 13:51:32;;;;;;;4.43;2.63;;;;;;;;;;4998872;28;20191;-57
2022/01/19 13:54:02;;;;;;;5.45;2.78;;;;;;;;;;5003870;28;20199;-57
2022/01/19 13:56:29;;;;;;;3.42;3.13;;;;;;;;;;5002449;28;20187;-57
2022/01/19 13:59:00;;;;;;;4.43;2.67;;;;;;;;;;4996108;28;20180;-57
2022/01/19 14:01:36;;;;;;;5.53;2.80;;;;;;;;;;4994504;28;20184;-57
2022/01/19 14:04:06;;;;;;;3.75;3.22;;;;;;;;;;5003937;28;20163;-57
2022/01/19 14:06:33;;;;;;;5.65;3.75;;;;;;;;;;4998515;28;20739;-57
2022/01/19 14:09:23;;;;;;;5.47;4.20;;;;;;;;;;4999840;28;20175;-57
2022/01/19 14:11:48;;;;;;;5.75;3.10;;;;;;;;;;4996141;28;20228;-57
2022/01/19 14:14:19;;;;;;;4.72;3.35;;;;;;;;;;5003849;28;20180;-57
2022/01/19 14:16:48;;;;;;;3.42;3.13;;;;;;;;;;4996917;28;20178;-57
2022/01/19 14:19:22;;;;;;;7.18;3.85;;;;;;;;;;4999653;28;20669;-58
2022/01/19 14:22:03;;;;;;;5.47;3.63;;;;;;;;;;5006702;28;20172;-58
2022/01/19 14:24:30;;;;;;;8.45;3.80;;;;;;;;;;5002269;28;20268;-58
2022/01/19 14:26:56;;;;;;;6.32;3.30;;;;;;;;;;4997105;28;20234;-58
2022/01/19 14:29:22;;;;;;;5.30;3.05;;;;;;;;;;4999490;28;20249;-57
2022/01/19 14:31:47;;;;;;;9.93;4.18;;;;;;;;;;5004941;28;20187;-57
2022/01/19 14:34:13;;;;;;;7.68;4.03;;;;;;;;;;5002253;28;20180;-58
2022/01/19 14:36:38;;;;;;;6.15;4.15;;;;;;;;;;5000377;28;20213;-58
2022/01/19 14:39:03;;;;;;;5.57;3.72;;;;;;;;;;4996910;28;20668;-58
2022/01/19 14:41:32;;;;;;;6.95;4.20;;;;;;;;;;4992202;28;20229;-57
2022/01/19 14:44:09;;;;;;;6.63;4.22;;;;;;;;;;5002292;28;20198;-57
2022/01/19 14:46:39;;;;;;;4.72;4.00;;;;;;;;;;4999012;28;20182;-57
2022/01/19 14:49:05;;;;;;;8.13;4.30;;;;;;;;;;5012946;28;20728;-57
2022/01/19 14:51:31;;;;;;;14.70;4.95;;;;;;;;;;4980161;28;20307;-57
2022/01/19 14:54:02;;;;;;;6.30;3.97;;;;;;;;;;4993817;28;20195;-57
2022/01/19 14:56:28;;;;;;;4.93;3.88;;;;;;;;;;5000283;28;20555;-57
2022/01/19 14:59:07;;;;;;;6.68;3.65;;;;;;;;;;4994057;28;20171;-57
2022/01/19 15:01:34;;;;;;;8.40;4.55;;;;;;;;;;4993259;28;20180;-57
2022/01/19 15:03:59;;;;;;;7.30;3.80;;;;;;;;;;5003014;28;20727;-57
2022/01/19 15:06:25;;;;;;;5.65;4.43;;;;;;;;;;4989291;28;20192;-58
2022/01/19 15:08:50;;;;;;;9.57;6.53;;;;;;;;;;4977295;28;20179;-57
2022/01/19 15:11:17;;;;;;;18.80;11.55;;;;;;;;;;4978774;28;20888;-58
2022/01/19 15:13:42;;;;;;;22.25;11.80;;;;;;;;;;4999716;28;20175;-57
2022/01/19 15:16:08;;;;;;;20.63;12.23;;;;;;;;;;5005119;28;20632;-58
2022/01/19 15:18:33;;;;;;;19.88;10.63;;;;;;;;;;5000974;28;20210;-57
2022/01/19 15:20:58;;;;;;;14.57;8.65;;;;;;;;;;5007691;28;20202;-57
2022/01/19 15:23:24;;;;;;;16.85;10.38;;;;;;;;;;5000612;28;20297;-56
2022/01/19 15:25:49;;;;;;;13.02;7.75;;;;;;;;;;5001102;28;20188;-57
2022/01/19 15:28:15;;;;;;;11.07;7.60;;;;;;;;;;5004573;28;20183;-59
2022/01/19 15:30:43;;;;;;;10.65;6.00;;;;;;;;;;4996887;28;20264;-57
2022/01/19 15:33:08;;;;;;;12.30;6.50;;;;;;;;;;4998394;28;20187;-57
2022/01/19 15:35:35;;;;;;;11.20;7.90;;;;;;;;;;5001349;28;20928;-57
2022/01/19 15:38:01;;;;;;;12.90;6.60;;;;;;;;;;5007450;28;20769;-57
2022/01/19 15:40:28;;;;;;;8.77;5.82;;;;;;;;;;4993383;28;20689;-57
2022/01/19 15:42:53;;;;;;;10.13;7.07;;;;;;;;;;4994751;28;20183;-56
2022/01/19 15:45:19;;;;;;;16.25;6.63;;;;;;;;;;5001203;28;20182;-58
2022/01/19 15:47:44;;;;;;;15.70;8.90;;;;;;;;;;4995937;28;20213;-58
2022/01/19 15:50:10;;;;;;;9.68;5.57;;;;;;;;;;4995957;28;20195;-58
2022/01/19 15:52:36;;;;;;;8.50;5.03;;;;;;;;;;4997116;28;20241;-56
2022/01/19 15:55:02;;;;;;;8.55;4.20;;;;;;;;;;5000078;28;20194;-58
2022/01/19 15:57:27;;;;;;;4.32;2.95;;;;;;;;;;5002496;28;20179;-57